createdAt,value
2017-06-17T00:01:02.947Z,0
2017-06-17T00:02:12.246Z,0
2017-06-17T00:03:22.542Z,0
2017-06-17T00:04:31.840Z,0
2017-06-17T00:05:41.440Z,0
2017-06-17T00:06:51.048Z,0
2017-06-17T00:08:01.274Z,0
2017-06-17T00:09:11.031Z,0
2017-06-17T00:10:21.258Z,0
2017-06-17T00:11:30.873Z,0
2017-06-17T00:12:40.791Z,0
2017-06-17T00:13:50.398Z,0
2017-06-17T00:15:00.364Z,0
2017-06-17T00:16:09.965Z,0
2017-06-17T00:17:19.567Z,0
2017-06-17T00:18:29.195Z,0
2017-06-17T00:19:39.145Z,0
2017-06-17T00:20:49.219Z,0
2017-06-17T00:21:59.121Z,0
2017-06-17T00:23:09.031Z,0
2017-06-17T00:24:18.949Z,0
2017-06-17T00:25:28.866Z,0
2017-06-17T00:26:39.086Z,0
2017-06-17T00:27:49.003Z,0
2017-06-17T00:28:58.915Z,0
2017-06-17T00:30:08.823Z,0
2017-06-17T00:31:18.732Z,0
2017-06-17T00:32:28.751Z,0
2017-06-17T00:33:38.364Z,0
2017-06-17T00:34:47.658Z,0
2017-06-17T00:35:57.570Z,0
2017-06-17T00:37:07.178Z,0
2017-06-17T00:38:16.940Z,0
2017-06-17T00:39:26.857Z,0
2017-06-17T00:40:36.467Z,0
2017-06-17T00:41:46.139Z,0
2017-06-17T00:42:56.369Z,0
2017-06-17T00:44:06.738Z,0
2017-06-17T00:45:16.341Z,0
2017-06-17T00:46:25.956Z,0
2017-06-17T00:47:35.867Z,0
2017-06-17T00:48:45.779Z,0
2017-06-17T00:49:55.788Z,0
2017-06-17T00:51:05.381Z,0
2017-06-17T00:52:14.983Z,0
2017-06-17T00:53:24.900Z,0
2017-06-17T00:54:34.510Z,0
2017-06-17T00:55:44.622Z,0
2017-06-17T00:56:54.856Z,0
2017-06-17T00:58:04.782Z,0
2017-06-17T00:59:14.708Z,0
2017-06-17T01:00:24.002Z,0
2017-06-17T01:01:33.658Z,0
2017-06-17T01:02:43.881Z,0
2017-06-17T01:03:53.826Z,0
2017-06-17T01:05:03.741Z,0
2017-06-17T01:06:13.655Z,0
2017-06-17T01:07:23.927Z,0
2017-06-17T01:08:33.866Z,0
2017-06-17T01:09:44.121Z,0
2017-06-17T01:10:54.375Z,0
2017-06-17T01:12:03.991Z,0
2017-06-17T01:13:13.707Z,0
2017-06-17T01:14:22.710Z,0
2017-06-17T01:15:32.624Z,0
2017-06-17T01:16:42.544Z,0
2017-06-17T01:17:52.155Z,0
2017-06-17T01:19:02.422Z,0
2017-06-17T01:20:12.027Z,0
2017-06-17T01:21:21.637Z,0
2017-06-17T01:22:31.867Z,0
2017-06-17T01:23:41.483Z,0
2017-06-17T01:24:51.407Z,0
2017-06-17T01:26:01.624Z,0
2017-06-17T01:27:10.935Z,0
2017-06-17T01:28:20.537Z,0
2017-06-17T01:29:30.140Z,0
2017-06-17T01:30:40.062Z,0
2017-06-17T01:31:50.284Z,0
2017-06-17T01:33:00.520Z,0
2017-06-17T01:34:10.435Z,0
2017-06-17T01:35:20.346Z,0
2017-06-17T01:36:29.441Z,0
2017-06-17T01:37:39.068Z,0
2017-06-17T01:38:49.000Z,0
2017-06-17T01:39:58.931Z,0
2017-06-17T01:41:09.162Z,0
2017-06-17T01:42:19.382Z,0
2017-06-17T01:43:29.290Z,0
2017-06-17T01:44:39.523Z,0
2017-06-17T01:45:49.437Z,0
2017-06-17T01:46:59.651Z,0
2017-06-17T01:48:09.869Z,0
2017-06-17T01:49:20.085Z,0
2017-06-17T01:50:30.314Z,0
2017-06-17T01:51:40.227Z,0
2017-06-17T01:52:50.134Z,0
2017-06-17T01:54:00.509Z,0
2017-06-17T01:55:10.725Z,0
2017-06-17T01:56:20.987Z,0
2017-06-17T01:57:31.201Z,0
2017-06-17T01:58:41.110Z,0
2017-06-17T01:59:51.026Z,0
2017-06-17T02:01:00.958Z,0
2017-06-17T02:02:10.878Z,0
2017-06-17T02:03:21.115Z,0
2017-06-17T02:04:31.040Z,0
2017-06-17T02:05:40.665Z,0
2017-06-17T02:06:50.915Z,0
2017-06-17T02:08:00.830Z,0
2017-06-17T02:09:11.076Z,0
2017-06-17T02:10:20.993Z,0
2017-06-17T02:11:31.084Z,0
2017-06-17T02:12:40.693Z,0
2017-06-17T02:13:50.908Z,0
2017-06-17T02:15:01.142Z,0
2017-06-17T02:16:11.358Z,0
2017-06-17T02:17:21.418Z,0
2017-06-17T02:18:31.330Z,0
2017-06-17T02:19:41.246Z,0
2017-06-17T02:20:51.464Z,0
2017-06-17T02:22:01.675Z,0
2017-06-17T02:23:11.639Z,0
2017-06-17T02:24:21.548Z,0
2017-06-17T02:25:31.462Z,0
2017-06-17T02:26:41.692Z,0
2017-06-17T02:27:51.603Z,0
2017-06-17T02:29:01.618Z,0
2017-06-17T02:30:11.834Z,0
2017-06-17T02:31:22.055Z,0
2017-06-17T02:32:31.962Z,0
2017-06-17T02:33:42.176Z,0
2017-06-17T02:34:52.558Z,0
2017-06-17T02:36:02.472Z,0
2017-06-17T02:37:12.391Z,0
2017-06-17T02:38:22.607Z,0
2017-06-17T02:39:32.845Z,0
2017-06-17T02:40:42.929Z,0
2017-06-17T02:41:52.554Z,0
2017-06-17T02:43:02.163Z,0
2017-06-17T02:44:11.764Z,0
2017-06-17T02:45:21.374Z,0
2017-06-17T02:46:31.438Z,0
2017-06-17T02:47:41.360Z,0
2017-06-17T02:48:51.270Z,0
2017-06-17T02:50:01.200Z,0
2017-06-17T02:51:10.801Z,0
2017-06-17T02:52:20.867Z,0
2017-06-17T02:53:30.784Z,0
2017-06-17T02:54:40.997Z,0
2017-06-17T02:55:50.911Z,0
2017-06-17T02:57:01.146Z,0
2017-06-17T02:58:11.371Z,0
2017-06-17T02:59:21.290Z,0
2017-06-17T03:00:31.206Z,0
2017-06-17T03:01:41.124Z,0
2017-06-17T03:02:51.345Z,0
2017-06-17T03:04:01.739Z,0
2017-06-17T03:05:11.650Z,0
2017-06-17T03:06:21.554Z,0
2017-06-17T03:07:31.769Z,0
2017-06-17T03:08:41.986Z,0
2017-06-17T03:09:52.044Z,0
2017-06-17T03:11:01.651Z,0
2017-06-17T03:12:11.564Z,0
2017-06-17T03:13:20.583Z,0
2017-06-17T03:14:30.807Z,0
2017-06-17T03:15:40.450Z,0
2017-06-17T03:16:50.358Z,0
2017-06-17T03:18:00.022Z,0
2017-06-17T03:19:09.625Z,0
2017-06-17T03:20:19.236Z,0
2017-06-17T03:21:29.495Z,0
2017-06-17T03:22:39.712Z,0
2017-06-17T03:23:49.634Z,0
2017-06-17T03:24:58.944Z,0
2017-06-17T03:26:08.241Z,0
2017-06-17T03:27:18.608Z,0
2017-06-17T03:28:28.219Z,0
2017-06-17T03:29:38.168Z,0
2017-06-17T03:30:47.462Z,0
2017-06-17T03:31:57.072Z,0
2017-06-17T03:33:06.994Z,0
2017-06-17T03:34:16.592Z,0
2017-06-17T03:35:25.913Z,0
2017-06-17T03:36:35.828Z,0
2017-06-17T03:37:45.744Z,0
2017-06-17T03:38:55.810Z,0
2017-06-17T03:40:05.726Z,0
2017-06-17T03:41:15.332Z,0
2017-06-17T03:42:25.266Z,0
2017-06-17T03:43:35.194Z,0
2017-06-17T03:44:45.409Z,0
2017-06-17T03:45:55.019Z,0
2017-06-17T03:47:04.614Z,0
2017-06-17T03:48:14.223Z,0
2017-06-17T03:49:24.135Z,0
2017-06-17T03:50:34.353Z,0
2017-06-17T03:51:44.265Z,0
2017-06-17T03:52:53.870Z,0
2017-06-17T03:54:04.087Z,5
2017-06-17T03:55:13.691Z,5
2017-06-17T03:56:23.914Z,5
2017-06-17T03:57:33.831Z,5
2017-06-17T03:58:43.736Z,5
2017-06-17T03:59:53.348Z,5
2017-06-17T04:01:02.658Z,5
2017-06-17T04:02:12.429Z,5
2017-06-17T04:03:21.731Z,5
2017-06-17T04:04:31.334Z,5
2017-06-17T04:05:41.555Z,5
2017-06-17T04:06:51.787Z,5
2017-06-17T04:08:01.816Z,5
2017-06-17T04:09:11.455Z,10
2017-06-17T04:10:21.370Z,10
2017-06-17T04:11:31.293Z,10
2017-06-17T04:12:41.203Z,10
2017-06-17T04:13:51.285Z,10
2017-06-17T04:15:01.502Z,10
2017-06-17T04:16:11.726Z,10
2017-06-17T04:17:21.346Z,15
2017-06-17T04:18:31.562Z,15
2017-06-17T04:19:41.790Z,20
2017-06-17T04:20:51.701Z,20
2017-06-17T04:22:01.301Z,15
2017-06-17T04:23:11.522Z,15
2017-06-17T04:24:21.741Z,15
2017-06-17T04:25:31.696Z,10
2017-06-17T04:26:41.924Z,15
2017-06-17T04:27:52.147Z,15
2017-06-17T04:29:02.064Z,20
2017-06-17T04:30:11.990Z,30
2017-06-17T04:31:21.913Z,25
2017-06-17T04:32:31.824Z,20
2017-06-17T04:33:42.050Z,15
2017-06-17T04:34:51.649Z,10
2017-06-17T04:36:01.252Z,10
2017-06-17T04:37:11.639Z,10
2017-06-17T04:38:21.552Z,10
2017-06-17T04:39:31.768Z,10
2017-06-17T04:40:41.379Z,10
2017-06-17T04:41:51.605Z,10
2017-06-17T04:43:01.562Z,10
2017-06-17T04:44:11.176Z,10
2017-06-17T04:45:21.089Z,10
2017-06-17T04:46:30.695Z,15
2017-06-17T04:47:40.917Z,15
2017-06-17T04:48:51.185Z,10
2017-06-17T04:50:00.808Z,10
2017-06-17T04:51:11.032Z,10
2017-06-17T04:52:20.940Z,10
2017-06-17T04:53:30.869Z,10
2017-06-17T04:54:40.792Z,15
2017-06-17T04:55:50.707Z,15
2017-06-17T04:57:00.309Z,15
2017-06-17T04:58:10.525Z,15
2017-06-17T04:59:20.426Z,15
2017-06-17T05:00:30.998Z,15
2017-06-17T05:01:40.927Z,15
2017-06-17T05:02:51.151Z,20
2017-06-17T05:04:01.068Z,20
2017-06-17T05:05:10.676Z,25
2017-06-17T05:06:20.952Z,25
2017-06-17T05:07:30.563Z,25
2017-06-17T05:08:40.778Z,25
2017-06-17T05:09:50.688Z,35
2017-06-17T05:11:00.605Z,35
2017-06-17T05:12:10.977Z,35
2017-06-17T05:13:20.580Z,35
2017-06-17T05:14:30.814Z,35
2017-06-17T05:15:40.722Z,45
2017-06-17T05:16:50.940Z,40
2017-06-17T05:18:00.851Z,40
2017-06-17T05:19:10.463Z,40
2017-06-17T05:20:20.376Z,40
2017-06-17T05:21:29.084Z,50
2017-06-17T05:22:38.998Z,110
2017-06-17T05:23:49.055Z,85
2017-06-17T05:24:58.981Z,40
2017-06-17T05:26:08.898Z,40
2017-06-17T05:27:18.500Z,40
2017-06-17T05:28:28.723Z,35
2017-06-17T05:29:39.294Z,35
2017-06-17T05:30:49.513Z,45
2017-06-17T05:31:59.438Z,55
2017-06-17T05:33:09.349Z,40
2017-06-17T05:34:19.570Z,30
2017-06-17T05:35:29.234Z,30
2017-06-17T05:36:38.856Z,30
2017-06-17T05:37:48.768Z,35
2017-06-17T05:38:58.998Z,40
2017-06-17T05:40:09.249Z,40
2017-06-17T05:41:19.579Z,45
2017-06-17T05:42:29.190Z,55
2017-06-17T05:43:39.420Z,50
2017-06-17T05:44:49.035Z,60
2017-06-17T05:45:58.948Z,60
2017-06-17T05:47:09.219Z,50
2017-06-17T05:48:19.133Z,40
2017-06-17T05:49:29.039Z,35
2017-06-17T05:50:39.272Z,35
2017-06-17T05:51:48.881Z,30
2017-06-17T05:52:59.169Z,25
2017-06-17T05:54:09.087Z,25
2017-06-17T05:55:18.719Z,20
2017-06-17T05:56:28.636Z,20
2017-06-17T05:57:38.869Z,15
2017-06-17T05:58:48.469Z,15
2017-06-17T05:59:58.379Z,15
2017-06-17T06:01:08.288Z,15
2017-06-17T06:02:18.199Z,15
2017-06-17T06:03:28.422Z,15
2017-06-17T06:04:38.486Z,15
2017-06-17T06:05:48.414Z,15
2017-06-17T06:06:58.324Z,15
2017-06-17T06:08:08.555Z,15
2017-06-17T06:09:18.763Z,20
2017-06-17T06:10:28.081Z,20
2017-06-17T06:11:37.999Z,15
2017-06-17T06:12:47.921Z,15
2017-06-17T06:13:57.828Z,15
2017-06-17T06:15:07.128Z,20
2017-06-17T06:16:17.090Z,20
2017-06-17T06:17:26.394Z,20
2017-06-17T06:18:36.300Z,20
2017-06-17T06:19:46.207Z,20
2017-06-17T06:20:56.118Z,20
2017-06-17T06:22:06.082Z,25
2017-06-17T06:23:15.380Z,30
2017-06-17T06:24:25.299Z,30
2017-06-17T06:25:34.898Z,30
2017-06-17T06:26:44.501Z,25
2017-06-17T06:27:54.761Z,25
2017-06-17T06:29:04.357Z,25
2017-06-17T06:30:14.271Z,25
2017-06-17T06:31:24.189Z,25
2017-06-17T06:32:34.410Z,20
2017-06-17T06:33:43.882Z,20
2017-06-17T06:34:53.801Z,15
2017-06-17T06:36:03.103Z,15
2017-06-17T06:37:12.706Z,20
2017-06-17T06:38:22.013Z,20
2017-06-17T06:39:32.435Z,20
2017-06-17T06:40:42.039Z,25
2017-06-17T06:41:51.341Z,30
2017-06-17T06:43:00.637Z,25
2017-06-17T06:44:10.553Z,25
2017-06-17T06:45:20.219Z,25
2017-06-17T06:46:30.452Z,25
2017-06-17T06:47:40.670Z,25
2017-06-17T06:48:50.890Z,25
2017-06-17T06:50:00.833Z,25
2017-06-17T06:51:10.791Z,20
2017-06-17T06:52:19.789Z,20
2017-06-17T06:53:30.018Z,20
2017-06-17T06:54:39.624Z,20
2017-06-17T06:55:49.236Z,15
2017-06-17T06:56:58.400Z,20
2017-06-17T06:58:08.315Z,20
2017-06-17T06:59:17.922Z,25
2017-06-17T07:00:27.837Z,25
2017-06-17T07:01:37.777Z,25
2017-06-17T07:02:47.530Z,25
2017-06-17T07:03:57.754Z,25
2017-06-17T07:05:07.675Z,20
2017-06-17T07:06:17.584Z,20
2017-06-17T07:07:27.814Z,20
2017-06-17T07:08:37.565Z,20
2017-06-17T07:09:47.172Z,20
2017-06-17T07:10:57.393Z,20
2017-06-17T07:12:07.311Z,20
2017-06-17T07:13:17.220Z,25
2017-06-17T07:14:27.493Z,25
2017-06-17T07:15:37.416Z,30
2017-06-17T07:16:47.642Z,30
2017-06-17T07:17:56.935Z,30
2017-06-17T07:19:06.846Z,35
2017-06-17T07:20:16.555Z,30
2017-06-17T07:21:26.470Z,35
2017-06-17T07:22:36.073Z,35
2017-06-17T07:23:45.992Z,40
2017-06-17T07:24:55.923Z,40
2017-06-17T07:26:05.857Z,45
2017-06-17T07:27:15.185Z,45
2017-06-17T07:28:24.489Z,40
2017-06-17T07:29:34.101Z,40
2017-06-17T07:30:44.016Z,40
2017-06-17T07:31:54.093Z,40
2017-06-17T07:33:04.012Z,40
2017-06-17T07:34:13.924Z,40
2017-06-17T07:35:24.140Z,45
2017-06-17T07:36:34.054Z,45
2017-06-17T07:37:44.067Z,50
2017-06-17T07:38:53.991Z,55
2017-06-17T07:40:03.307Z,60
2017-06-17T07:41:12.622Z,55
2017-06-17T07:42:21.924Z,55
2017-06-17T07:43:32.503Z,55
2017-06-17T07:44:42.423Z,55
2017-06-17T07:45:52.639Z,50
2017-06-17T07:47:02.854Z,50
2017-06-17T07:48:13.078Z,50
2017-06-17T07:49:23.603Z,45
2017-06-17T07:50:33.207Z,45
2017-06-17T07:51:43.127Z,40
2017-06-17T07:52:53.344Z,40
2017-06-17T07:54:03.562Z,40
2017-06-17T07:55:13.783Z,40
2017-06-17T07:56:23.430Z,40
2017-06-17T07:57:33.339Z,40
2017-06-17T07:58:43.258Z,40
2017-06-17T07:59:53.484Z,40
2017-06-17T08:01:03.442Z,40
2017-06-17T08:02:13.361Z,35
2017-06-17T08:03:23.279Z,40
2017-06-17T08:04:33.202Z,40
2017-06-17T08:05:42.815Z,45
2017-06-17T08:06:53.048Z,50
2017-06-17T08:08:02.970Z,55
2017-06-17T08:09:12.908Z,55
2017-06-17T08:10:22.541Z,55
2017-06-17T08:11:32.484Z,55
2017-06-17T08:12:42.729Z,55
2017-06-17T08:13:52.943Z,55
2017-06-17T08:15:03.162Z,50
2017-06-17T08:16:12.767Z,45
2017-06-17T08:17:22.406Z,45
2017-06-17T08:18:32.742Z,45
2017-06-17T08:19:42.704Z,50
2017-06-17T08:20:52.658Z,50
2017-06-17T08:22:02.282Z,50
2017-06-17T08:23:12.596Z,50
2017-06-17T08:24:22.891Z,55
2017-06-17T08:25:32.835Z,50
2017-06-17T08:26:42.789Z,50
2017-06-17T08:27:52.134Z,50
2017-06-17T08:29:01.765Z,50
2017-06-17T08:30:11.705Z,50
2017-06-17T08:31:21.968Z,45
2017-06-17T08:32:31.930Z,40
2017-06-17T08:33:41.291Z,40
2017-06-17T08:34:51.211Z,40
2017-06-17T08:36:01.321Z,40
2017-06-17T08:37:11.271Z,40
2017-06-17T08:38:20.908Z,40
2017-06-17T08:39:31.145Z,45
2017-06-17T08:40:40.798Z,45
2017-06-17T08:41:50.846Z,50
2017-06-17T08:43:00.197Z,50
2017-06-17T08:44:09.845Z,50
2017-06-17T08:45:19.787Z,60
2017-06-17T08:46:29.401Z,65
2017-06-17T08:47:39.794Z,65
2017-06-17T08:48:50.039Z,75
2017-06-17T08:50:00.270Z,75
2017-06-17T08:51:09.872Z,75
2017-06-17T08:52:19.800Z,75
2017-06-17T08:53:29.919Z,75
2017-06-17T08:54:39.834Z,85
2017-06-17T08:55:49.452Z,85
2017-06-17T08:56:59.675Z,85
2017-06-17T08:58:08.969Z,80
2017-06-17T08:59:18.730Z,70
2017-06-17T09:00:28.648Z,65
2017-06-17T09:01:38.879Z,60
2017-06-17T09:02:48.788Z,65
2017-06-17T09:03:57.815Z,70
2017-06-17T09:05:08.100Z,75
2017-06-17T09:06:18.336Z,90
2017-06-17T09:07:28.287Z,105
2017-06-17T09:08:38.210Z,95
2017-06-17T09:09:48.444Z,85
2017-06-17T09:10:58.414Z,90
2017-06-17T09:12:07.717Z,90
2017-06-17T09:13:17.638Z,95
2017-06-17T09:14:27.255Z,100
2017-06-17T09:15:37.186Z,105
2017-06-17T09:16:47.420Z,105
2017-06-17T09:17:57.053Z,105
2017-06-17T09:19:06.659Z,110
2017-06-17T09:20:16.885Z,105
2017-06-17T09:21:26.805Z,100
2017-06-17T09:22:36.895Z,95
2017-06-17T09:23:46.817Z,95
2017-06-17T09:24:55.815Z,95
2017-06-17T09:26:05.425Z,100
2017-06-17T09:27:15.648Z,115
2017-06-17T09:28:25.720Z,130
2017-06-17T09:29:35.343Z,125
2017-06-17T09:30:45.259Z,115
2017-06-17T09:31:54.876Z,115
2017-06-17T09:33:04.195Z,110
2017-06-17T09:34:13.949Z,100
2017-06-17T09:35:23.875Z,95
2017-06-17T09:36:33.801Z,90
2017-06-17T09:37:43.721Z,80
2017-06-17T09:38:53.654Z,75
2017-06-17T09:40:03.319Z,70
2017-06-17T09:41:13.234Z,70
2017-06-17T09:42:23.164Z,70
2017-06-17T09:43:33.385Z,70
2017-06-17T09:44:43.304Z,65
2017-06-17T09:45:53.218Z,65
2017-06-17T09:47:03.433Z,60
2017-06-17T09:48:13.417Z,65
2017-06-17T09:49:23.342Z,70
2017-06-17T09:50:33.555Z,65
2017-06-17T09:51:43.781Z,65
2017-06-17T09:52:53.719Z,65
2017-06-17T09:54:03.949Z,70
2017-06-17T09:55:13.551Z,75
2017-06-17T09:56:23.158Z,80
2017-06-17T09:57:33.125Z,85
2017-06-17T09:58:42.430Z,90
2017-06-17T09:59:52.344Z,90
2017-06-17T10:01:01.956Z,85
2017-06-17T10:02:11.873Z,80
2017-06-17T10:03:22.264Z,75
2017-06-17T10:04:31.870Z,70
2017-06-17T10:05:42.096Z,65
2017-06-17T10:06:52.314Z,65
2017-06-17T10:08:01.934Z,65
2017-06-17T10:09:12.193Z,65
2017-06-17T10:10:22.112Z,60
2017-06-17T10:11:31.733Z,55
2017-06-17T10:12:41.956Z,50
2017-06-17T10:13:50.953Z,50
2017-06-17T10:15:01.321Z,50
2017-06-17T10:16:11.238Z,50
2017-06-17T10:17:21.462Z,55
2017-06-17T10:18:31.685Z,55
2017-06-17T10:19:41.597Z,60
2017-06-17T10:20:51.668Z,60
2017-06-17T10:22:01.596Z,60
2017-06-17T10:23:11.238Z,60
2017-06-17T10:24:20.865Z,60
2017-06-17T10:25:30.777Z,60
2017-06-17T10:26:41.005Z,60
2017-06-17T10:27:50.641Z,65
2017-06-17T10:29:00.574Z,70
2017-06-17T10:30:10.524Z,70
2017-06-17T10:31:20.773Z,80
2017-06-17T10:32:30.795Z,85
2017-06-17T10:33:40.413Z,90
2017-06-17T10:34:49.731Z,90
2017-06-17T10:35:59.353Z,85
2017-06-17T10:37:08.969Z,80
2017-06-17T10:38:18.379Z,85
2017-06-17T10:39:28.039Z,90
2017-06-17T10:40:37.356Z,85
2017-06-17T10:41:47.283Z,80
2017-06-17T10:42:57.516Z,75
2017-06-17T10:44:07.435Z,80
2017-06-17T10:45:17.351Z,75
2017-06-17T10:46:27.574Z,75
2017-06-17T10:47:37.795Z,70
2017-06-17T10:48:47.455Z,70
2017-06-17T10:49:57.079Z,70
2017-06-17T10:51:07.012Z,70
2017-06-17T10:52:16.944Z,70
2017-06-17T10:53:27.186Z,75
2017-06-17T10:54:36.819Z,75
2017-06-17T10:55:46.814Z,70
2017-06-17T10:56:56.732Z,65
2017-06-17T10:58:06.963Z,60
2017-06-17T10:59:16.570Z,60
2017-06-17T11:00:26.799Z,60
2017-06-17T11:01:36.573Z,60
2017-06-17T11:02:46.184Z,65
2017-06-17T11:03:56.401Z,75
2017-06-17T11:05:06.339Z,80
2017-06-17T11:06:16.804Z,85
2017-06-17T11:07:27.089Z,95
2017-06-17T11:08:37.013Z,100
2017-06-17T11:09:47.235Z,100
2017-06-17T11:10:57.155Z,110
2017-06-17T11:12:07.077Z,110
2017-06-17T11:13:17.199Z,105
2017-06-17T11:14:26.807Z,105
2017-06-17T11:15:37.025Z,105
2017-06-17T11:16:47.252Z,110
2017-06-17T11:17:56.251Z,110
2017-06-17T11:19:06.180Z,115
2017-06-17T11:20:16.396Z,115
2017-06-17T11:21:26.623Z,115
2017-06-17T11:22:35.950Z,120
2017-06-17T11:23:45.889Z,110
2017-06-17T11:24:55.569Z,95
2017-06-17T11:26:05.183Z,85
2017-06-17T11:27:15.098Z,100
2017-06-17T11:28:25.016Z,100
2017-06-17T11:29:34.968Z,100
2017-06-17T11:30:44.898Z,90
2017-06-17T11:31:54.822Z,85
2017-06-17T11:33:05.047Z,75
2017-06-17T11:34:14.895Z,70
2017-06-17T11:35:25.135Z,70
2017-06-17T11:36:34.543Z,65
2017-06-17T11:37:44.193Z,65
2017-06-17T11:38:54.109Z,80
2017-06-17T11:40:04.046Z,85
2017-06-17T11:41:13.661Z,95
2017-06-17T11:42:24.065Z,90
2017-06-17T11:43:33.988Z,80
2017-06-17T11:44:43.294Z,85
2017-06-17T11:45:53.232Z,90
2017-06-17T11:47:03.452Z,85
2017-06-17T11:48:13.366Z,95
2017-06-17T11:49:23.279Z,90
2017-06-17T11:50:33.497Z,85
2017-06-17T11:51:43.714Z,75
2017-06-17T11:52:53.962Z,60
2017-06-17T11:54:03.988Z,55
2017-06-17T11:55:13.304Z,60
2017-06-17T11:56:23.225Z,70
2017-06-17T11:57:32.837Z,80
2017-06-17T11:58:43.081Z,85
2017-06-17T11:59:53.150Z,90
2017-06-17T12:01:02.761Z,100
2017-06-17T12:02:13.194Z,100
2017-06-17T12:03:23.802Z,100
2017-06-17T12:04:33.721Z,100
2017-06-17T12:05:43.783Z,100
2017-06-17T12:06:53.719Z,95
2017-06-17T12:08:03.037Z,95
2017-06-17T12:09:12.953Z,90
2017-06-17T12:10:22.595Z,80
2017-06-17T12:11:32.347Z,75
2017-06-17T12:12:41.972Z,70
2017-06-17T12:13:51.890Z,60
2017-06-17T12:15:01.525Z,65
2017-06-17T12:16:11.458Z,65
2017-06-17T12:17:21.066Z,60
2017-06-17T12:18:30.685Z,40
2017-06-17T12:19:40.308Z,35
2017-06-17T12:20:49.935Z,35
2017-06-17T12:21:59.872Z,35
2017-06-17T12:23:09.594Z,30
2017-06-17T12:24:19.821Z,35
2017-06-17T12:25:29.787Z,35
2017-06-17T12:26:39.709Z,35
2017-06-17T12:27:49.942Z,35
2017-06-17T12:29:00.228Z,35
2017-06-17T12:30:10.166Z,30
2017-06-17T12:31:19.794Z,30
2017-06-17T12:32:29.705Z,30
2017-06-17T12:33:39.629Z,35
2017-06-17T12:34:49.707Z,35
2017-06-17T12:35:59.924Z,40
2017-06-17T12:37:09.522Z,50
2017-06-17T12:38:19.430Z,50
2017-06-17T12:39:29.041Z,50
2017-06-17T12:40:39.002Z,40
2017-06-17T12:41:48.623Z,35
2017-06-17T12:42:58.230Z,30
2017-06-17T12:44:07.856Z,30
2017-06-17T12:45:17.458Z,30
2017-06-17T12:46:27.066Z,35
2017-06-17T12:47:36.997Z,35
2017-06-17T12:48:47.229Z,35
2017-06-17T12:49:56.530Z,30
2017-06-17T12:51:06.442Z,25
2017-06-17T12:52:16.204Z,25
2017-06-17T12:53:25.814Z,25
2017-06-17T12:54:35.108Z,25
2017-06-17T12:55:44.406Z,20
2017-06-17T12:56:54.327Z,20
2017-06-17T12:58:04.095Z,20
2017-06-17T12:59:14.020Z,20
2017-06-17T13:00:23.331Z,20
2017-06-17T13:01:33.240Z,20
2017-06-17T13:02:43.164Z,20
2017-06-17T13:03:53.078Z,20
2017-06-17T13:05:03.008Z,25
2017-06-17T13:06:12.641Z,30
2017-06-17T13:07:22.574Z,35
2017-06-17T13:08:32.189Z,40
2017-06-17T13:09:41.637Z,50
2017-06-17T13:10:51.869Z,60
2017-06-17T13:12:01.482Z,65
2017-06-17T13:13:11.106Z,65
2017-06-17T13:14:21.049Z,65
2017-06-17T13:15:31.007Z,65
2017-06-17T13:16:40.621Z,70
2017-06-17T13:17:50.552Z,70
2017-06-17T13:19:00.157Z,75
2017-06-17T13:20:09.778Z,80
2017-06-17T13:21:20.050Z,80
2017-06-17T13:22:29.659Z,80
2017-06-17T13:23:39.908Z,75
2017-06-17T13:24:49.827Z,70
2017-06-17T13:25:59.447Z,65
2017-06-17T13:27:09.524Z,65
2017-06-17T13:28:19.142Z,65
2017-06-17T13:29:28.470Z,70
2017-06-17T13:30:37.775Z,65
2017-06-17T13:31:47.697Z,60
2017-06-17T13:32:57.009Z,55
2017-06-17T13:34:07.230Z,50
2017-06-17T13:35:17.145Z,45
2017-06-17T13:36:27.069Z,45
2017-06-17T13:37:36.680Z,50
2017-06-17T13:38:45.715Z,55
2017-06-17T13:39:55.628Z,60
2017-06-17T13:41:05.540Z,60
2017-06-17T13:42:15.457Z,60
2017-06-17T13:43:25.682Z,65
2017-06-17T13:44:35.642Z,60
2017-06-17T13:45:44.977Z,55
2017-06-17T13:46:55.208Z,50
2017-06-17T13:48:05.138Z,55
2017-06-17T13:49:14.750Z,60
2017-06-17T13:50:24.751Z,65
2017-06-17T13:51:34.973Z,60
2017-06-17T13:52:44.271Z,60
2017-06-17T13:53:54.196Z,65
2017-06-17T13:55:03.828Z,70
2017-06-17T13:56:13.799Z,70
2017-06-17T13:57:23.718Z,70
2017-06-17T13:58:33.032Z,70
2017-06-17T13:59:42.951Z,65
2017-06-17T14:00:52.247Z,60
2017-06-17T14:02:01.658Z,55
2017-06-17T14:03:11.901Z,50
2017-06-17T14:04:22.118Z,40
2017-06-17T14:05:31.727Z,35
2017-06-17T14:06:41.648Z,35
2017-06-17T14:07:51.886Z,40
2017-06-17T14:09:01.506Z,40
2017-06-17T14:10:11.427Z,40
2017-06-17T14:11:21.064Z,40
2017-06-17T14:12:30.683Z,40
2017-06-17T14:13:40.600Z,35
2017-06-17T14:14:50.837Z,35
2017-06-17T14:16:00.448Z,35
2017-06-17T14:17:09.755Z,40
2017-06-17T14:18:19.059Z,40
2017-06-17T14:19:28.512Z,50
2017-06-17T14:20:37.824Z,50
2017-06-17T14:21:47.445Z,55
2017-06-17T14:22:57.067Z,60
2017-06-17T14:24:07.045Z,60
2017-06-17T14:25:17.016Z,65
2017-06-17T14:26:26.930Z,65
2017-06-17T14:27:37.153Z,65
2017-06-17T14:28:47.380Z,60
2017-06-17T14:29:57.312Z,60
2017-06-17T14:31:07.221Z,65
2017-06-17T14:32:17.444Z,65
2017-06-17T14:33:26.440Z,70
2017-06-17T14:34:36.662Z,70
2017-06-17T14:35:46.571Z,70
2017-06-17T14:36:56.847Z,70
2017-06-17T14:38:06.463Z,70
2017-06-17T14:39:16.378Z,75
2017-06-17T14:40:26.609Z,75
2017-06-17T14:41:36.521Z,75
2017-06-17T14:42:46.595Z,75
2017-06-17T14:43:56.818Z,75
2017-06-17T14:45:07.084Z,75
2017-06-17T14:46:17.016Z,75
2017-06-17T14:47:26.933Z,75
2017-06-17T14:48:35.929Z,75
2017-06-17T14:49:45.850Z,75
2017-06-17T14:50:55.474Z,75
2017-06-17T14:52:05.078Z,75
2017-06-17T14:53:14.685Z,70
2017-06-17T14:54:24.942Z,70
2017-06-17T14:55:35.180Z,75
2017-06-17T14:56:44.503Z,75
2017-06-17T14:57:54.735Z,80
2017-06-17T14:59:04.349Z,70
2017-06-17T15:00:14.101Z,65
2017-06-17T15:01:23.415Z,65
2017-06-17T15:02:33.646Z,60
2017-06-17T15:03:43.632Z,60
2017-06-17T15:04:53.558Z,60
2017-06-17T15:06:03.327Z,65
2017-06-17T15:07:12.935Z,65
2017-06-17T15:08:22.232Z,70
2017-06-17T15:09:31.839Z,70
2017-06-17T15:10:41.756Z,65
2017-06-17T15:11:51.832Z,65
2017-06-17T15:13:01.440Z,65
2017-06-17T15:14:11.359Z,65
2017-06-17T15:15:20.665Z,65
2017-06-17T15:16:30.602Z,70
2017-06-17T15:17:40.692Z,70
2017-06-17T15:18:50.916Z,65
2017-06-17T15:20:00.839Z,65
2017-06-17T15:21:11.067Z,65
2017-06-17T15:22:21.356Z,65
2017-06-17T15:23:31.271Z,65
2017-06-17T15:24:40.882Z,65
2017-06-17T15:25:51.134Z,65
2017-06-17T15:27:01.057Z,65
2017-06-17T15:28:10.366Z,65
2017-06-17T15:29:20.709Z,65
2017-06-17T15:30:30.356Z,65
2017-06-17T15:31:39.967Z,65
2017-06-17T15:32:49.896Z,65
2017-06-17T15:33:59.837Z,60
2017-06-17T15:35:09.447Z,60
2017-06-17T15:36:19.677Z,60
2017-06-17T15:37:29.593Z,60
2017-06-17T15:38:39.502Z,60
2017-06-17T15:39:49.099Z,60
2017-06-17T15:40:58.858Z,60
2017-06-17T15:42:08.186Z,60
2017-06-17T15:43:18.142Z,55
2017-06-17T15:44:27.774Z,55
2017-06-17T15:45:37.403Z,55
2017-06-17T15:46:47.177Z,55
2017-06-17T15:47:57.099Z,55
2017-06-17T15:49:06.719Z,60
2017-06-17T15:50:16.665Z,55
2017-06-17T15:51:25.975Z,55
2017-06-17T15:52:36.046Z,55
2017-06-17T15:53:45.972Z,50
2017-06-17T15:54:55.576Z,50
2017-06-17T15:56:05.535Z,50
2017-06-17T15:57:15.465Z,50
2017-06-17T15:58:25.713Z,45
2017-06-17T15:59:35.951Z,50
2017-06-17T16:00:45.869Z,50
2017-06-17T16:01:56.102Z,50
2017-06-17T16:03:06.344Z,50
2017-06-17T16:04:16.083Z,50
2017-06-17T16:05:26.013Z,50
2017-06-17T16:06:35.634Z,50
2017-06-17T16:07:45.571Z,50
2017-06-17T16:08:55.823Z,50
2017-06-17T16:10:05.844Z,50
2017-06-17T16:11:15.774Z,50
2017-06-17T16:12:25.415Z,45
2017-06-17T16:13:34.745Z,45
2017-06-17T16:14:44.365Z,45
2017-06-17T16:15:54.145Z,45
2017-06-17T16:17:04.377Z,45
2017-06-17T16:18:13.691Z,45
2017-06-17T16:19:23.620Z,45
2017-06-17T16:20:33.247Z,45
2017-06-17T16:21:43.624Z,45
2017-06-17T16:22:53.562Z,45
2017-06-17T16:24:02.863Z,45
2017-06-17T16:25:12.174Z,40
2017-06-17T16:26:22.400Z,40
2017-06-17T16:27:32.008Z,40
2017-06-17T16:28:41.626Z,40
2017-06-17T16:29:51.254Z,40
2017-06-17T16:31:00.559Z,35
2017-06-17T16:32:10.161Z,35
2017-06-17T16:33:19.866Z,30
2017-06-17T16:34:29.782Z,30
2017-06-17T16:35:39.696Z,30
2017-06-17T16:36:49.636Z,30
2017-06-17T16:37:59.552Z,30
2017-06-17T16:39:09.547Z,35
2017-06-17T16:40:19.466Z,35
2017-06-17T16:41:29.094Z,30
2017-06-17T16:42:38.712Z,30
2017-06-17T16:43:48.630Z,30